sensor_id;sensor_type;location;lat;lon;timestamp;P1;durP1;ratioP1;P2;durP2;ratioP2
76610;SDS011;65503;48.534;9.062;2023-03-09T00:00:57;5.57;;;1.60;;
76610;SDS011;65503;48.534;9.062;2023-03-09T00:03:23;2.75;;;1.52;;
76610;SDS011;65503;48.534;9.062;2023-03-09T00:05:54;6.38;;;1.50;;
76610;SDS011;65503;48.534;9.062;2023-03-09T00:08:25;3.05;;;1.90;;
76610;SDS011;65503;48.534;9.062;2023-03-09T00:10:53;3.42;;;1.30;;
76610;SDS011;65503;48.534;9.062;2023-03-09T00:13:20;6.47;;;1.45;;
76610;SDS011;65503;48.534;9.062;2023-03-09T00:15:47;2.95;;;1.08;;
76610;SDS011;65503;48.534;9.062;2023-03-09T00:18:20;5.47;;;1.23;;
76610;SDS011;65503;48.534;9.062;2023-03-09T00:20:47;3.88;;;1.40;;
76610;SDS011;65503;48.534;9.062;2023-03-09T00:23:14;4.22;;;1.23;;
76610;SDS011;65503;48.534;9.062;2023-03-09T00:25:44;5.47;;;1.25;;
76610;SDS011;65503;48.534;9.062;2023-03-09T00:28:11;2.85;;;1.40;;
76610;SDS011;65503;48.534;9.062;2023-03-09T00:30:37;4.80;;;1.65;;
76610;SDS011;65503;48.534;9.062;2023-03-09T00:33:04;4.03;;;1.35;;
76610;SDS011;65503;48.534;9.062;2023-03-09T00:35:32;7.45;;;1.48;;
76610;SDS011;65503;48.534;9.062;2023-03-09T00:38:01;4.93;;;1.63;;
76610;SDS011;65503;48.534;9.062;2023-03-09T00:40:27;7.13;;;1.80;;
76610;SDS011;65503;48.534;9.062;2023-03-09T00:42:53;4.70;;;1.45;;
76610;SDS011;65503;48.534;9.062;2023-03-09T00:45:20;2.20;;;1.20;;
76610;SDS011;65503;48.534;9.062;2023-03-09T00:47:49;4.43;;;1.30;;
76610;SDS011;65503;48.534;9.062;2023-03-09T00:50:15;3.25;;;1.20;;
76610;SDS011;65503;48.534;9.062;2023-03-09T00:52:42;1.63;;;0.90;;
76610;SDS011;65503;48.534;9.062;2023-03-09T00:55:09;1.88;;;0.98;;
76610;SDS011;65503;48.534;9.062;2023-03-09T00:57:35;2.55;;;0.90;;
76610;SDS011;65503;48.534;9.062;2023-03-09T01:00:02;0.85;;;0.60;;
76610;SDS011;65503;48.534;9.062;2023-03-09T01:02:30;0.80;;;0.75;;
76610;SDS011;65503;48.534;9.062;2023-03-09T01:04:57;0.40;;;0.40;;
76610;SDS011;65503;48.534;9.062;2023-03-09T01:07:23;0.57;;;0.40;;
76610;SDS011;65503;48.534;9.062;2023-03-09T01:09:50;0.57;;;0.50;;
76610;SDS011;65503;48.534;9.062;2023-03-09T01:12:16;3.53;;;0.52;;
76610;SDS011;65503;48.534;9.062;2023-03-09T01:14:43;0.32;;;0.32;;
76610;SDS011;65503;48.534;9.062;2023-03-09T01:17:09;1.40;;;0.40;;
76610;SDS011;65503;48.534;9.062;2023-03-09T01:19:36;1.90;;;0.47;;
76610;SDS011;65503;48.534;9.062;2023-03-09T01:22:02;3.92;;;0.80;;
76610;SDS011;65503;48.534;9.062;2023-03-09T01:24:29;1.35;;;0.30;;
76610;SDS011;65503;48.534;9.062;2023-03-09T01:26:55;0.52;;;0.45;;
76610;SDS011;65503;48.534;9.062;2023-03-09T01:29:22;0.45;;;0.40;;
76610;SDS011;65503;48.534;9.062;2023-03-09T01:31:48;0.43;;;0.30;;
76610;SDS011;65503;48.534;9.062;2023-03-09T01:34:15;1.60;;;0.47;;
76610;SDS011;65503;48.534;9.062;2023-03-09T01:36:42;1.27;;;0.60;;
76610;SDS011;65503;48.534;9.062;2023-03-09T01:39:08;2.28;;;0.52;;
76610;SDS011;65503;48.534;9.062;2023-03-09T01:41:35;1.75;;;0.60;;
76610;SDS011;65503;48.534;9.062;2023-03-09T01:44:02;4.13;;;0.50;;
76610;SDS011;65503;48.534;9.062;2023-03-09T01:46:39;1.10;;;0.50;;
76610;SDS011;65503;48.534;9.062;2023-03-09T01:49:24;1.10;;;0.70;;
76610;SDS011;65503;48.534;9.062;2023-03-09T01:54:47;1.20;;;0.70;;
76610;SDS011;65503;48.534;9.062;2023-03-09T01:57:21;1.10;;;0.70;;
76610;SDS011;65503;48.534;9.062;2023-03-09T01:59:55;3.78;;;0.82;;
76610;SDS011;65503;48.534;9.062;2023-03-09T02:02:26;2.40;;;0.80;;
76610;SDS011;65503;48.534;9.062;2023-03-09T02:04:56;1.73;;;0.73;;
76610;SDS011;65503;48.534;9.062;2023-03-09T02:07:27;1.85;;;0.93;;
76610;SDS011;65503;48.534;9.062;2023-03-09T02:10:13;0.60;;;0.60;;
76610;SDS011;65503;48.534;9.062;2023-03-09T02:12:46;0.57;;;0.50;;
76610;SDS011;65503;48.534;9.062;2023-03-09T02:15:19;2.08;;;0.77;;
76610;SDS011;65503;48.534;9.062;2023-03-09T02:17:46;0.52;;;0.52;;
76610;SDS011;65503;48.534;9.062;2023-03-09T02:22:53;1.10;;;0.57;;
76610;SDS011;65503;48.534;9.062;2023-03-09T02:28:13;1.70;;;0.70;;
76610;SDS011;65503;48.534;9.062;2023-03-09T02:30:40;4.57;;;0.80;;
76610;SDS011;65503;48.534;9.062;2023-03-09T02:33:11;1.20;;;0.70;;
76610;SDS011;65503;48.534;9.062;2023-03-09T02:35:52;1.27;;;0.55;;
76610;SDS011;65503;48.534;9.062;2023-03-09T02:38:22;0.73;;;0.70;;
76610;SDS011;65503;48.534;9.062;2023-03-09T02:40:48;0.52;;;0.52;;
76610;SDS011;65503;48.534;9.062;2023-03-09T02:45:45;1.10;;;0.45;;
76610;SDS011;65503;48.534;9.062;2023-03-09T02:48:12;0.60;;;0.60;;
76610;SDS011;65503;48.534;9.062;2023-03-09T02:50:38;1.20;;;1.08;;
76610;SDS011;65503;48.534;9.062;2023-03-09T02:53:05;2.08;;;0.60;;
76610;SDS011;65503;48.534;9.062;2023-03-09T02:55:31;1.02;;;0.43;;
76610;SDS011;65503;48.534;9.062;2023-03-09T02:57:58;0.70;;;0.40;;
76610;SDS011;65503;48.534;9.062;2023-03-09T03:00:24;0.80;;;0.50;;
76610;SDS011;65503;48.534;9.062;2023-03-09T03:02:52;1.60;;;0.60;;
76610;SDS011;65503;48.534;9.062;2023-03-09T03:05:19;0.80;;;0.60;;
76610;SDS011;65503;48.534;9.062;2023-03-09T03:07:45;0.65;;;0.60;;
76610;SDS011;65503;48.534;9.062;2023-03-09T03:10:12;2.05;;;0.50;;
76610;SDS011;65503;48.534;9.062;2023-03-09T03:12:38;1.17;;;0.70;;
76610;SDS011;65503;48.534;9.062;2023-03-09T03:15:05;1.45;;;0.80;;
76610;SDS011;65503;48.534;9.062;2023-03-09T03:17:32;1.67;;;0.90;;
76610;SDS011;65503;48.534;9.062;2023-03-09T03:19:58;1.40;;;0.80;;
76610;SDS011;65503;48.534;9.062;2023-03-09T03:22:25;2.42;;;0.90;;
76610;SDS011;65503;48.534;9.062;2023-03-09T03:24:52;0.90;;;0.82;;
76610;SDS011;65503;48.534;9.062;2023-03-09T03:27:18;1.92;;;0.98;;
76610;SDS011;65503;48.534;9.062;2023-03-09T03:29:45;4.50;;;1.10;;
76610;SDS011;65503;48.534;9.062;2023-03-09T03:32:12;2.40;;;0.98;;
76610;SDS011;65503;48.534;9.062;2023-03-09T03:34:38;1.00;;;0.70;;
76610;SDS011;65503;48.534;9.062;2023-03-09T03:37:04;1.55;;;0.80;;
76610;SDS011;65503;48.534;9.062;2023-03-09T03:39:31;1.85;;;0.80;;
76610;SDS011;65503;48.534;9.062;2023-03-09T03:41:58;1.70;;;0.93;;
76610;SDS011;65503;48.534;9.062;2023-03-09T03:44:24;3.20;;;0.95;;
76610;SDS011;65503;48.534;9.062;2023-03-09T03:46:51;2.13;;;0.95;;
76610;SDS011;65503;48.534;9.062;2023-03-09T03:49:18;1.52;;;0.90;;
76610;SDS011;65503;48.534;9.062;2023-03-09T03:51:44;1.38;;;0.73;;
76610;SDS011;65503;48.534;9.062;2023-03-09T03:54:10;2.33;;;0.70;;
76610;SDS011;65503;48.534;9.062;2023-03-09T03:56:37;2.28;;;0.60;;
76610;SDS011;65503;48.534;9.062;2023-03-09T03:59:03;1.38;;;0.70;;
76610;SDS011;65503;48.534;9.062;2023-03-09T04:01:33;2.00;;;0.45;;
76610;SDS011;65503;48.534;9.062;2023-03-09T04:03:59;1.40;;;0.70;;
76610;SDS011;65503;48.534;9.062;2023-03-09T04:06:26;0.82;;;0.70;;
76610;SDS011;65503;48.534;9.062;2023-03-09T04:08:53;2.67;;;0.52;;
76610;SDS011;65503;48.534;9.062;2023-03-09T04:11:19;2.72;;;0.60;;
76610;SDS011;65503;48.534;9.062;2023-03-09T04:13:46;1.67;;;0.70;;
76610;SDS011;65503;48.534;9.062;2023-03-09T04:16:14;1.98;;;0.70;;
76610;SDS011;65503;48.534;9.062;2023-03-09T04:18:41;1.10;;;0.70;;
76610;SDS011;65503;48.534;9.062;2023-03-09T04:21:08;2.40;;;0.90;;
76610;SDS011;65503;48.534;9.062;2023-03-09T04:23:34;2.25;;;0.80;;
76610;SDS011;65503;48.534;9.062;2023-03-09T04:26:02;0.80;;;0.57;;
76610;SDS011;65503;48.534;9.062;2023-03-09T04:28:29;1.58;;;0.80;;
76610;SDS011;65503;48.534;9.062;2023-03-09T04:30:56;4.43;;;1.08;;
76610;SDS011;65503;48.534;9.062;2023-03-09T04:33:22;3.28;;;0.70;;
76610;SDS011;65503;48.534;9.062;2023-03-09T04:35:49;3.50;;;1.20;;
76610;SDS011;65503;48.534;9.062;2023-03-09T04:38:16;1.20;;;0.90;;
76610;SDS011;65503;48.534;9.062;2023-03-09T04:40:42;3.67;;;0.80;;
76610;SDS011;65503;48.534;9.062;2023-03-09T04:43:09;3.38;;;0.80;;
76610;SDS011;65503;48.534;9.062;2023-03-09T04:45:35;3.28;;;0.98;;
76610;SDS011;65503;48.534;9.062;2023-03-09T04:48:01;5.50;;;1.27;;
76610;SDS011;65503;48.534;9.062;2023-03-09T04:50:28;6.28;;;1.02;;
76610;SDS011;65503;48.534;9.062;2023-03-09T04:52:55;8.18;;;2.75;;
76610;SDS011;65503;48.534;9.062;2023-03-09T04:55:21;5.38;;;1.30;;
76610;SDS011;65503;48.534;9.062;2023-03-09T04:57:48;2.70;;;0.98;;
76610;SDS011;65503;48.534;9.062;2023-03-09T05:00:15;6.65;;;1.50;;
76610;SDS011;65503;48.534;9.062;2023-03-09T05:02:42;1.73;;;1.23;;
76610;SDS011;65503;48.534;9.062;2023-03-09T05:05:09;3.65;;;1.27;;
76610;SDS011;65503;48.534;9.062;2023-03-09T05:07:36;3.97;;;1.27;;
76610;SDS011;65503;48.534;9.062;2023-03-09T05:10:03;8.35;;;1.23;;
76610;SDS011;65503;48.534;9.062;2023-03-09T05:12:30;5.70;;;1.15;;
76610;SDS011;65503;48.534;9.062;2023-03-09T05:15:00;3.95;;;1.20;;
76610;SDS011;65503;48.534;9.062;2023-03-09T05:17:27;7.05;;;1.23;;
76610;SDS011;65503;48.534;9.062;2023-03-09T05:19:53;12.68;;;1.70;;
76610;SDS011;65503;48.534;9.062;2023-03-09T05:22:20;4.57;;;1.42;;
76610;SDS011;65503;48.534;9.062;2023-03-09T05:24:47;8.95;;;1.65;;
76610;SDS011;65503;48.534;9.062;2023-03-09T05:27:14;7.30;;;1.65;;
76610;SDS011;65503;48.534;9.062;2023-03-09T05:29:40;11.32;;;1.80;;
76610;SDS011;65503;48.534;9.062;2023-03-09T05:32:07;9.07;;;1.30;;
76610;SDS011;65503;48.534;9.062;2023-03-09T05:34:34;7.95;;;1.80;;
76610;SDS011;65503;48.534;9.062;2023-03-09T05:37:01;9.20;;;1.75;;
76610;SDS011;65503;48.534;9.062;2023-03-09T05:39:27;9.80;;;2.00;;
76610;SDS011;65503;48.534;9.062;2023-03-09T05:41:54;5.70;;;1.50;;
76610;SDS011;65503;48.534;9.062;2023-03-09T05:44:22;8.23;;;2.08;;
76610;SDS011;65503;48.534;9.062;2023-03-09T05:46:49;12.32;;;2.00;;
76610;SDS011;65503;48.534;9.062;2023-03-09T05:49:15;7.55;;;1.90;;
76610;SDS011;65503;48.534;9.062;2023-03-09T05:51:42;6.65;;;1.45;;
76610;SDS011;65503;48.534;9.062;2023-03-09T05:54:08;12.43;;;1.75;;
76610;SDS011;65503;48.534;9.062;2023-03-09T05:56:35;9.07;;;2.17;;
76610;SDS011;65503;48.534;9.062;2023-03-09T05:59:01;7.07;;;1.50;;
76610;SDS011;65503;48.534;9.062;2023-03-09T06:01:29;7.28;;;1.40;;
76610;SDS011;65503;48.534;9.062;2023-03-09T06:03:56;7.30;;;1.60;;
76610;SDS011;65503;48.534;9.062;2023-03-09T06:06:23;8.52;;;1.83;;
76610;SDS011;65503;48.534;9.062;2023-03-09T06:08:49;9.52;;;1.92;;
76610;SDS011;65503;48.534;9.062;2023-03-09T06:11:16;8.38;;;1.60;;
76610;SDS011;65503;48.534;9.062;2023-03-09T06:13:42;8.07;;;1.58;;
76610;SDS011;65503;48.534;9.062;2023-03-09T06:16:13;5.88;;;1.42;;
76610;SDS011;65503;48.534;9.062;2023-03-09T06:18:41;6.30;;;1.10;;
76610;SDS011;65503;48.534;9.062;2023-03-09T06:21:09;6.28;;;1.38;;
76610;SDS011;65503;48.534;9.062;2023-03-09T06:23:36;7.50;;;1.40;;
76610;SDS011;65503;48.534;9.062;2023-03-09T06:26:03;7.18;;;1.20;;
76610;SDS011;65503;48.534;9.062;2023-03-09T06:28:32;9.40;;;1.70;;
76610;SDS011;65503;48.534;9.062;2023-03-09T06:30:59;4.38;;;1.17;;
76610;SDS011;65503;48.534;9.062;2023-03-09T06:33:30;10.02;;;1.92;;
76610;SDS011;65503;48.534;9.062;2023-03-09T06:35:56;6.25;;;1.50;;
76610;SDS011;65503;48.534;9.062;2023-03-09T06:38:25;11.90;;;2.10;;
76610;SDS011;65503;48.534;9.062;2023-03-09T06:40:52;5.43;;;1.75;;
76610;SDS011;65503;48.534;9.062;2023-03-09T06:43:20;7.63;;;2.00;;
76610;SDS011;65503;48.534;9.062;2023-03-09T06:45:47;5.78;;;1.38;;
76610;SDS011;65503;48.534;9.062;2023-03-09T06:48:14;7.45;;;1.60;;
76610;SDS011;65503;48.534;9.062;2023-03-09T06:50:41;6.97;;;1.50;;
76610;SDS011;65503;48.534;9.062;2023-03-09T06:53:07;13.75;;;2.00;;
76610;SDS011;65503;48.534;9.062;2023-03-09T06:55:35;4.75;;;1.20;;
76610;SDS011;65503;48.534;9.062;2023-03-09T06:58:02;3.85;;;1.33;;
76610;SDS011;65503;48.534;9.062;2023-03-09T07:00:29;3.80;;;1.10;;
76610;SDS011;65503;48.534;9.062;2023-03-09T07:02:56;6.47;;;1.20;;
76610;SDS011;65503;48.534;9.062;2023-03-09T07:05:23;3.97;;;1.33;;
76610;SDS011;65503;48.534;9.062;2023-03-09T07:07:49;7.20;;;1.95;;
76610;SDS011;65503;48.534;9.062;2023-03-09T07:10:16;11.07;;;1.65;;
76610;SDS011;65503;48.534;9.062;2023-03-09T07:12:42;9.95;;;1.92;;
76610;SDS011;65503;48.534;9.062;2023-03-09T07:15:10;4.55;;;1.30;;
76610;SDS011;65503;48.534;9.062;2023-03-09T07:17:37;7.18;;;1.85;;
76610;SDS011;65503;48.534;9.062;2023-03-09T07:20:03;9.45;;;2.00;;
76610;SDS011;65503;48.534;9.062;2023-03-09T07:22:30;8.95;;;1.40;;
76610;SDS011;65503;48.534;9.062;2023-03-09T07:24:57;7.30;;;1.42;;
76610;SDS011;65503;48.534;9.062;2023-03-09T07:27:24;7.63;;;1.60;;
76610;SDS011;65503;48.534;9.062;2023-03-09T07:29:50;7.60;;;1.85;;
76610;SDS011;65503;48.534;9.062;2023-03-09T07:32:16;3.78;;;1.63;;
76610;SDS011;65503;48.534;9.062;2023-03-09T07:34:43;5.18;;;1.25;;
76610;SDS011;65503;48.534;9.062;2023-03-09T07:37:09;13.80;;;1.60;;
76610;SDS011;65503;48.534;9.062;2023-03-09T07:39:36;5.90;;;1.50;;
76610;SDS011;65503;48.534;9.062;2023-03-09T07:42:02;3.58;;;1.17;;
76610;SDS011;65503;48.534;9.062;2023-03-09T07:44:29;3.50;;;1.30;;
76610;SDS011;65503;48.534;9.062;2023-03-09T07:46:56;4.70;;;1.63;;
76610;SDS011;65503;48.534;9.062;2023-03-09T07:49:22;9.80;;;2.45;;
76610;SDS011;65503;48.534;9.062;2023-03-09T07:51:49;8.30;;;1.90;;
76610;SDS011;65503;48.534;9.062;2023-03-09T07:54:15;6.55;;;1.27;;
76610;SDS011;65503;48.534;9.062;2023-03-09T07:56:42;6.85;;;1.30;;
76610;SDS011;65503;48.534;9.062;2023-03-09T07:59:14;6.32;;;1.05;;
76610;SDS011;65503;48.534;9.062;2023-03-09T08:01:41;4.85;;;1.38;;
76610;SDS011;65503;48.534;9.062;2023-03-09T08:04:08;4.25;;;1.35;;
76610;SDS011;65503;48.534;9.062;2023-03-09T08:06:36;3.47;;;0.90;;
76610;SDS011;65503;48.534;9.062;2023-03-09T08:09:04;3.58;;;1.00;;
76610;SDS011;65503;48.534;9.062;2023-03-09T08:11:32;6.45;;;1.00;;
76610;SDS011;65503;48.534;9.062;2023-03-09T08:13:59;6.05;;;1.30;;
76610;SDS011;65503;48.534;9.062;2023-03-09T08:16:26;9.45;;;1.20;;
76610;SDS011;65503;48.534;9.062;2023-03-09T08:18:53;4.22;;;1.08;;
76610;SDS011;65503;48.534;9.062;2023-03-09T08:21:19;5.40;;;1.00;;
76610;SDS011;65503;48.534;9.062;2023-03-09T08:23:46;4.97;;;1.10;;
76610;SDS011;65503;48.534;9.062;2023-03-09T08:26:13;4.32;;;1.00;;
76610;SDS011;65503;48.534;9.062;2023-03-09T08:28:41;4.05;;;0.95;;
76610;SDS011;65503;48.534;9.062;2023-03-09T08:31:09;4.95;;;1.00;;
76610;SDS011;65503;48.534;9.062;2023-03-09T08:33:37;4.78;;;1.00;;
76610;SDS011;65503;48.534;9.062;2023-03-09T08:38:43;4.38;;;1.30;;
76610;SDS011;65503;48.534;9.062;2023-03-09T08:41:10;2.45;;;0.95;;
76610;SDS011;65503;48.534;9.062;2023-03-09T08:43:37;4.70;;;1.10;;
76610;SDS011;65503;48.534;9.062;2023-03-09T08:46:04;3.65;;;1.08;;
76610;SDS011;65503;48.534;9.062;2023-03-09T08:48:31;9.05;;;1.80;;
76610;SDS011;65503;48.534;9.062;2023-03-09T08:50:59;5.38;;;1.15;;
76610;SDS011;65503;48.534;9.062;2023-03-09T08:53:26;4.97;;;0.90;;
76610;SDS011;65503;48.534;9.062;2023-03-09T08:55:53;5.65;;;1.33;;
76610;SDS011;65503;48.534;9.062;2023-03-09T08:58:19;3.80;;;1.02;;
76610;SDS011;65503;48.534;9.062;2023-03-09T09:00:46;3.67;;;0.90;;
76610;SDS011;65503;48.534;9.062;2023-03-09T09:03:14;6.25;;;1.40;;
76610;SDS011;65503;48.534;9.062;2023-03-09T09:05:41;4.20;;;0.93;;
76610;SDS011;65503;48.534;9.062;2023-03-09T09:08:07;4.25;;;1.08;;
76610;SDS011;65503;48.534;9.062;2023-03-09T09:10:34;3.47;;;1.10;;
76610;SDS011;65503;48.534;9.062;2023-03-09T09:13:01;4.18;;;1.55;;
76610;SDS011;65503;48.534;9.062;2023-03-09T09:15:28;4.97;;;1.00;;
76610;SDS011;65503;48.534;9.062;2023-03-09T09:17:54;5.68;;;0.98;;
76610;SDS011;65503;48.534;9.062;2023-03-09T09:20:21;2.65;;;0.82;;
76610;SDS011;65503;48.534;9.062;2023-03-09T09:22:48;4.45;;;0.80;;
76610;SDS011;65503;48.534;9.062;2023-03-09T09:25:14;5.53;;;0.90;;
76610;SDS011;65503;48.534;9.062;2023-03-09T09:27:41;5.55;;;0.80;;
76610;SDS011;65503;48.534;9.062;2023-03-09T09:30:08;4.95;;;1.00;;
76610;SDS011;65503;48.534;9.062;2023-03-09T09:32:36;2.50;;;0.80;;
76610;SDS011;65503;48.534;9.062;2023-03-09T09:35:03;1.63;;;0.60;;
76610;SDS011;65503;48.534;9.062;2023-03-09T09:37:30;4.03;;;1.02;;
76610;SDS011;65503;48.534;9.062;2023-03-09T09:39:57;4.05;;;1.23;;
76610;SDS011;65503;48.534;9.062;2023-03-09T09:42:35;4.10;;;1.05;;
76610;SDS011;65503;48.534;9.062;2023-03-09T09:45:05;3.03;;;0.90;;
76610;SDS011;65503;48.534;9.062;2023-03-09T09:47:48;0.95;;;0.60;;
76610;SDS011;65503;48.534;9.062;2023-03-09T09:50:15;8.35;;;1.30;;
76610;SDS011;65503;48.534;9.062;2023-03-09T09:55:18;2.38;;;0.70;;
76610;SDS011;65503;48.534;9.062;2023-03-09T09:58:09;5.60;;;1.05;;
76610;SDS011;65503;48.534;9.062;2023-03-09T10:00:50;4.88;;;0.95;;
76610;SDS011;65503;48.534;9.062;2023-03-09T10:03:26;2.28;;;0.70;;
76610;SDS011;65503;48.534;9.062;2023-03-09T10:08:43;3.88;;;0.90;;
76610;SDS011;65503;48.534;9.062;2023-03-09T10:11:34;11.52;;;2.10;;
76610;SDS011;65503;48.534;9.062;2023-03-09T10:14:10;2.80;;;0.70;;
76610;SDS011;65503;48.534;9.062;2023-03-09T10:16:56;4.28;;;1.08;;
76610;SDS011;65503;48.534;9.062;2023-03-09T10:19:50;5.28;;;1.17;;
76610;SDS011;65503;48.534;9.062;2023-03-09T10:22:22;5.90;;;1.05;;
76610;SDS011;65503;48.534;9.062;2023-03-09T10:24:51;3.95;;;0.98;;
76610;SDS011;65503;48.534;9.062;2023-03-09T10:27:34;5.10;;;0.73;;
76610;SDS011;65503;48.534;9.062;2023-03-09T10:30:32;4.72;;;1.00;;
76610;SDS011;65503;48.534;9.062;2023-03-09T10:36:08;6.47;;;1.15;;
76610;SDS011;65503;48.534;9.062;2023-03-09T10:38:42;2.55;;;0.90;;
76610;SDS011;65503;48.534;9.062;2023-03-09T10:41:27;2.17;;;0.80;;
76610;SDS011;65503;48.534;9.062;2023-03-09T10:43:55;4.20;;;1.73;;
76610;SDS011;65503;48.534;9.062;2023-03-09T10:46:24;5.78;;;1.00;;
76610;SDS011;65503;48.534;9.062;2023-03-09T10:49:11;2.10;;;0.90;;
76610;SDS011;65503;48.534;9.062;2023-03-09T10:51:53;5.28;;;1.00;;
76610;SDS011;65503;48.534;9.062;2023-03-09T10:54:23;8.40;;;1.20;;
76610;SDS011;65503;48.534;9.062;2023-03-09T10:56:55;6.85;;;1.20;;
76610;SDS011;65503;48.534;9.062;2023-03-09T10:59:23;5.45;;;1.20;;
76610;SDS011;65503;48.534;9.062;2023-03-09T11:01:52;6.43;;;1.42;;
76610;SDS011;65503;48.534;9.062;2023-03-09T11:06:49;3.60;;;1.08;;
76610;SDS011;65503;48.534;9.062;2023-03-09T11:09:18;3.90;;;0.70;;
76610;SDS011;65503;48.534;9.062;2023-03-09T11:14:51;5.88;;;1.60;;
76610;SDS011;65503;48.534;9.062;2023-03-09T11:17:33;8.57;;;1.42;;
76610;SDS011;65503;48.534;9.062;2023-03-09T11:22:45;5.40;;;1.00;;
76610;SDS011;65503;48.534;9.062;2023-03-09T11:28:18;3.45;;;0.88;;
76610;SDS011;65503;48.534;9.062;2023-03-09T11:30:51;6.13;;;1.20;;
76610;SDS011;65503;48.534;9.062;2023-03-09T11:33:22;4.57;;;1.00;;
76610;SDS011;65503;48.534;9.062;2023-03-09T11:35:51;4.75;;;1.38;;
76610;SDS011;65503;48.534;9.062;2023-03-09T11:38:19;5.38;;;1.27;;
76610;SDS011;65503;48.534;9.062;2023-03-09T11:40:48;7.10;;;1.10;;
76610;SDS011;65503;48.534;9.062;2023-03-09T11:43:25;7.55;;;1.30;;
76610;SDS011;65503;48.534;9.062;2023-03-09T11:45:57;6.65;;;1.00;;
76610;SDS011;65503;48.534;9.062;2023-03-09T11:48:28;4.40;;;0.80;;
76610;SDS011;65503;48.534;9.062;2023-03-09T11:51:03;4.85;;;0.93;;
76610;SDS011;65503;48.534;9.062;2023-03-09T11:58:58;4.72;;;0.90;;
76610;SDS011;65503;48.534;9.062;2023-03-09T12:04:10;5.35;;;1.00;;
76610;SDS011;65503;48.534;9.062;2023-03-09T12:09:23;3.47;;;1.20;;
76610;SDS011;65503;48.534;9.062;2023-03-09T12:11:56;5.47;;;1.38;;
76610;SDS011;65503;48.534;9.062;2023-03-09T12:14:27;5.13;;;1.33;;
76610;SDS011;65503;48.534;9.062;2023-03-09T12:17:23;6.18;;;1.67;;
76610;SDS011;65503;48.534;9.062;2023-03-09T12:19:54;4.35;;;1.00;;
76610;SDS011;65503;48.534;9.062;2023-03-09T12:25:36;5.07;;;1.00;;
76610;SDS011;65503;48.534;9.062;2023-03-09T12:27:48;5.28;;;1.45;;
76610;SDS011;65503;48.534;9.062;2023-03-09T12:30:28;6.57;;;1.85;;
76610;SDS011;65503;48.534;9.062;2023-03-09T12:32:58;6.35;;;1.20;;
76610;SDS011;65503;48.534;9.062;2023-03-09T12:45:39;5.63;;;1.17;;
76610;SDS011;65503;48.534;9.062;2023-03-09T12:55:52;3.65;;;1.10;;
76610;SDS011;65503;48.534;9.062;2023-03-09T13:00:51;2.85;;;0.77;;
76610;SDS011;65503;48.534;9.062;2023-03-09T13:03:21;7.85;;;1.00;;
76610;SDS011;65503;48.534;9.062;2023-03-09T13:05:54;10.90;;;1.35;;
76610;SDS011;65503;48.534;9.062;2023-03-09T13:08:24;4.30;;;1.25;;
76610;SDS011;65503;48.534;9.062;2023-03-09T13:13:51;5.03;;;0.90;;
76610;SDS011;65503;48.534;9.062;2023-03-09T13:21:43;2.80;;;0.70;;
76610;SDS011;65503;48.534;9.062;2023-03-09T13:24:18;4.88;;;0.80;;
76610;SDS011;65503;48.534;9.062;2023-03-09T13:26:49;4.05;;;0.85;;
76610;SDS011;65503;48.534;9.062;2023-03-09T13:29:23;2.45;;;0.70;;
76610;SDS011;65503;48.534;9.062;2023-03-09T13:31:52;6.18;;;1.10;;
76610;SDS011;65503;48.534;9.062;2023-03-09T13:34:24;5.95;;;1.13;;
76610;SDS011;65503;48.534;9.062;2023-03-09T13:36:54;6.25;;;1.50;;
76610;SDS011;65503;48.534;9.062;2023-03-09T13:39:30;4.43;;;1.10;;
76610;SDS011;65503;48.534;9.062;2023-03-09T13:41:58;4.28;;;0.98;;
76610;SDS011;65503;48.534;9.062;2023-03-09T13:44:28;7.82;;;0.95;;
76610;SDS011;65503;48.534;9.062;2023-03-09T13:46:57;4.13;;;1.10;;
76610;SDS011;65503;48.534;9.062;2023-03-09T13:49:26;3.10;;;0.85;;
76610;SDS011;65503;48.534;9.062;2023-03-09T13:51:56;4.97;;;1.05;;
76610;SDS011;65503;48.534;9.062;2023-03-09T13:54:29;2.90;;;1.00;;
76610;SDS011;65503;48.534;9.062;2023-03-09T13:59:57;4.10;;;0.90;;
76610;SDS011;65503;48.534;9.062;2023-03-09T14:02:30;7.00;;;0.90;;
76610;SDS011;65503;48.534;9.062;2023-03-09T14:05:04;4.30;;;0.95;;
76610;SDS011;65503;48.534;9.062;2023-03-09T14:07:55;5.68;;;1.48;;
76610;SDS011;65503;48.534;9.062;2023-03-09T14:10:28;6.90;;;1.45;;
76610;SDS011;65503;48.534;9.062;2023-03-09T14:12:59;2.72;;;0.90;;
76610;SDS011;65503;48.534;9.062;2023-03-09T14:15:28;5.45;;;1.60;;
76610;SDS011;65503;48.534;9.062;2023-03-09T14:17:55;4.93;;;1.45;;
76610;SDS011;65503;48.534;9.062;2023-03-09T14:20:34;4.45;;;1.05;;
76610;SDS011;65503;48.534;9.062;2023-03-09T14:25:42;4.47;;;0.80;;
76610;SDS011;65503;48.534;9.062;2023-03-09T14:28:28;8.02;;;1.45;;
76610;SDS011;65503;48.534;9.062;2023-03-09T14:31:07;4.00;;;0.90;;
76610;SDS011;65503;48.534;9.062;2023-03-09T14:36:52;4.07;;;0.90;;
76610;SDS011;65503;48.534;9.062;2023-03-09T14:39:29;6.25;;;1.05;;
76610;SDS011;65503;48.534;9.062;2023-03-09T14:44:34;5.53;;;1.20;;
76610;SDS011;65503;48.534;9.062;2023-03-09T14:47:01;8.50;;;1.20;;
76610;SDS011;65503;48.534;9.062;2023-03-09T14:49:28;7.20;;;1.60;;
76610;SDS011;65503;48.534;9.062;2023-03-09T14:51:55;4.30;;;1.05;;
76610;SDS011;65503;48.534;9.062;2023-03-09T14:54:21;5.45;;;1.05;;
76610;SDS011;65503;48.534;9.062;2023-03-09T14:56:48;4.63;;;1.08;;
76610;SDS011;65503;48.534;9.062;2023-03-09T14:59:17;9.32;;;1.50;;
76610;SDS011;65503;48.534;9.062;2023-03-09T15:01:47;7.78;;;1.30;;
76610;SDS011;65503;48.534;9.062;2023-03-09T15:04:25;10.90;;;1.85;;
76610;SDS011;65503;48.534;9.062;2023-03-09T15:06:53;8.05;;;1.70;;
76610;SDS011;65503;48.534;9.062;2023-03-09T15:09:20;4.88;;;1.15;;
76610;SDS011;65503;48.534;9.062;2023-03-09T15:11:47;7.90;;;1.30;;
76610;SDS011;65503;48.534;9.062;2023-03-09T15:14:22;9.02;;;1.70;;
76610;SDS011;65503;48.534;9.062;2023-03-09T15:17:03;4.85;;;1.20;;
76610;SDS011;65503;48.534;9.062;2023-03-09T15:19:30;8.57;;;1.60;;
76610;SDS011;65503;48.534;9.062;2023-03-09T15:21:58;15.30;;;1.83;;
76610;SDS011;65503;48.534;9.062;2023-03-09T15:24:26;7.55;;;1.40;;
76610;SDS011;65503;48.534;9.062;2023-03-09T15:26:56;7.45;;;1.80;;
76610;SDS011;65503;48.534;9.062;2023-03-09T15:29:23;11.05;;;2.35;;
76610;SDS011;65503;48.534;9.062;2023-03-09T15:31:49;5.82;;;1.55;;
76610;SDS011;65503;48.534;9.062;2023-03-09T15:34:16;7.28;;;1.48;;
76610;SDS011;65503;48.534;9.062;2023-03-09T15:36:43;7.45;;;1.55;;
76610;SDS011;65503;48.534;9.062;2023-03-09T15:39:09;8.55;;;1.27;;
76610;SDS011;65503;48.534;9.062;2023-03-09T15:41:36;8.75;;;1.85;;
76610;SDS011;65503;48.534;9.062;2023-03-09T15:44:03;10.90;;;1.40;;
76610;SDS011;65503;48.534;9.062;2023-03-09T15:46:29;5.82;;;1.65;;
76610;SDS011;65503;48.534;9.062;2023-03-09T15:48:56;9.80;;;1.77;;
76610;SDS011;65503;48.534;9.062;2023-03-09T15:51:23;8.10;;;1.17;;
76610;SDS011;65503;48.534;9.062;2023-03-09T15:53:50;8.27;;;1.38;;
76610;SDS011;65503;48.534;9.062;2023-03-09T15:56:17;5.68;;;1.20;;
76610;SDS011;65503;48.534;9.062;2023-03-09T15:58:45;9.07;;;1.63;;
76610;SDS011;65503;48.534;9.062;2023-03-09T16:01:16;8.23;;;1.40;;
76610;SDS011;65503;48.534;9.062;2023-03-09T16:03:44;7.07;;;1.45;;
76610;SDS011;65503;48.534;9.062;2023-03-09T16:06:11;7.72;;;1.73;;
76610;SDS011;65503;48.534;9.062;2023-03-09T16:08:38;10.38;;;1.77;;
76610;SDS011;65503;48.534;9.062;2023-03-09T16:11:05;4.90;;;1.27;;
76610;SDS011;65503;48.534;9.062;2023-03-09T16:13:31;6.35;;;1.30;;
76610;SDS011;65503;48.534;9.062;2023-03-09T16:15:58;4.45;;;1.30;;
76610;SDS011;65503;48.534;9.062;2023-03-09T16:18:25;7.15;;;1.40;;
76610;SDS011;65503;48.534;9.062;2023-03-09T16:20:51;7.40;;;1.42;;
76610;SDS011;65503;48.534;9.062;2023-03-09T16:23:17;6.65;;;1.38;;
76610;SDS011;65503;48.534;9.062;2023-03-09T16:25:51;7.50;;;1.63;;